Aeroporto :
LOGIN :

Iscrizione | Disclaimer

   EN    FR    IT 

 










Sommario :    VFR   VFR Marginale   IFR   IFR Intensivo   IFR Molto Intensivo
Visibilità : 
Base nubi : 
>= 8 km
>= 3000ft
5 / 8 km
1000 / 3000 ft
1500m / 5 km
500 / 1000 ft
800 / 1500m
200 / 500 ft
< 800m
< 200 ft
Simboli :   Temporali  Nebbia  Neve Forte  Precipitazioni Forti  Vento > 20 kt
SIGMETs :   Varie  Temporali  Ghiacco  Turbolenza  Onda orograficha  Ceneri Vulcaniche






- Altitudine del aeroporto : 1213 ft
- Codice IATA : SCQ


LEST - Santiago de Compostela

ULTIMO METAR :
  • 211430Z 35004KT 320V020 9999 -SHRA SCT021 SCT037TCU 10/09 Q1018 NOSIG

METARs OBSOLETI :
  • 211400Z 02006KT 9999 SCT021 SCT032TCU 10/09 Q1018 NOSIG
  • 211330Z 01008KT 340V040 9999 SCT018 SCT027TCU 11/08 Q1018 NOSIG
  • 211300Z VRB01KT 9999 SCT014 SCT023TCU 13/08 Q1018 NOSIG
  • 211230Z VRB01KT 9999 SCT010 SCT023TCU 11/07 Q1019 NOSIG
  • 211200Z 01004KT 9999 SCT004 SCT025TCU 11/09 Q1019 NOSIG
  • 211130Z VRB02KT 9999 4000S BCFG SCT004 FEW018TCU 11/10 Q1019 NOSIG

TAF TAF LEST
Valido dal 21 a 12 ore il 22 a 12 ore UTC


211100Z 2112/2212 03006KT 9999 SCT015 TX13/2114Z TN05/2205Z
PROB40
TEMPO 2112/2118 SHRA SCT030TCU
PROB30
TEMPO 2112/2118 TS SCT030CB
PROB30
TEMPO 2200/2208 3000 BR BCFG



MetMap, La meteo Aeronautica in un colpo d'occhio ! - Copyright ORBIFLY Dicembre 2007 - Disclaimer

ORBIFLY MET'MAP TEAM :

Programmazione e sviluppo : Alexandra Zaïnal
Concezione e sviluppo : Baudouin d'Aumeries
Co-Programmazione e sviluppo : Marc-Olivier Méhu
Supporto tecnico e logistico : Manuel Goepfert
Aiuto per la traduzione : Arnaldo La Scala

Contatto : metmap@orbifly.com




FONTI E CREDITI :

   NOAA